sensor_id;sensor_type;location;lat;lon;timestamp;P1;durP1;ratioP1;P2;durP2;ratioP2
2177;SDS011;1095;50.992;6.798;2023-05-07T00:01:12;15.10;;;13.20;;
2177;SDS011;1095;50.992;6.798;2023-05-07T00:03:38;13.05;;;11.70;;
2177;SDS011;1095;50.992;6.798;2023-05-07T00:06:05;13.07;;;11.45;;
2177;SDS011;1095;50.992;6.798;2023-05-07T00:08:32;14.93;;;11.90;;
2177;SDS011;1095;50.992;6.798;2023-05-07T00:10:58;12.40;;;11.05;;
2177;SDS011;1095;50.992;6.798;2023-05-07T00:13:26;12.57;;;11.13;;
2177;SDS011;1095;50.992;6.798;2023-05-07T00:15:55;15.85;;;11.73;;
2177;SDS011;1095;50.992;6.798;2023-05-07T00:18:22;13.45;;;11.05;;
2177;SDS011;1095;50.992;6.798;2023-05-07T00:20:48;12.73;;;11.32;;
2177;SDS011;1095;50.992;6.798;2023-05-07T00:23:15;13.07;;;10.55;;
2177;SDS011;1095;50.992;6.798;2023-05-07T00:25:43;12.77;;;10.77;;
2177;SDS011;1095;50.992;6.798;2023-05-07T00:28:10;14.02;;;11.65;;
2177;SDS011;1095;50.992;6.798;2023-05-07T00:30:38;12.77;;;10.65;;
2177;SDS011;1095;50.992;6.798;2023-05-07T00:33:05;12.82;;;11.18;;
2177;SDS011;1095;50.992;6.798;2023-05-07T00:35:31;13.75;;;11.70;;
2177;SDS011;1095;50.992;6.798;2023-05-07T00:37:58;13.35;;;10.95;;
2177;SDS011;1095;50.992;6.798;2023-05-07T00:40:24;15.00;;;12.05;;
2177;SDS011;1095;50.992;6.798;2023-05-07T00:42:51;12.35;;;11.05;;
2177;SDS011;1095;50.992;6.798;2023-05-07T00:45:21;14.70;;;11.15;;
2177;SDS011;1095;50.992;6.798;2023-05-07T00:47:54;12.90;;;11.32;;
2177;SDS011;1095;50.992;6.798;2023-05-07T00:50:22;13.77;;;11.35;;
2177;SDS011;1095;50.992;6.798;2023-05-07T00:52:48;13.40;;;11.00;;
2177;SDS011;1095;50.992;6.798;2023-05-07T00:55:17;15.13;;;11.88;;
2177;SDS011;1095;50.992;6.798;2023-05-07T00:57:45;12.52;;;11.07;;
2177;SDS011;1095;50.992;6.798;2023-05-07T01:00:12;11.80;;;10.65;;
2177;SDS011;1095;50.992;6.798;2023-05-07T01:02:39;12.15;;;10.82;;
2177;SDS011;1095;50.992;6.798;2023-05-07T01:05:09;12.70;;;10.63;;
2177;SDS011;1095;50.992;6.798;2023-05-07T01:07:38;12.52;;;10.38;;
2177;SDS011;1095;50.992;6.798;2023-05-07T01:10:07;12.95;;;10.73;;
2177;SDS011;1095;50.992;6.798;2023-05-07T01:12:35;13.80;;;10.57;;
2177;SDS011;1095;50.992;6.798;2023-05-07T01:15:03;11.13;;;9.93;;
2177;SDS011;1095;50.992;6.798;2023-05-07T01:17:34;11.57;;;9.80;;
2177;SDS011;1095;50.992;6.798;2023-05-07T01:20:01;11.93;;;9.77;;
2177;SDS011;1095;50.992;6.798;2023-05-07T01:22:31;12.30;;;10.18;;
2177;SDS011;1095;50.992;6.798;2023-05-07T01:24:59;11.45;;;9.88;;
2177;SDS011;1095;50.992;6.798;2023-05-07T01:27:26;11.18;;;9.63;;
2177;SDS011;1095;50.992;6.798;2023-05-07T01:29:53;12.65;;;10.02;;
2177;SDS011;1095;50.992;6.798;2023-05-07T01:32:21;12.07;;;9.27;;
2177;SDS011;1095;50.992;6.798;2023-05-07T01:34:55;11.35;;;9.65;;
2177;SDS011;1095;50.992;6.798;2023-05-07T01:37:23;10.70;;;8.55;;
2177;SDS011;1095;50.992;6.798;2023-05-07T01:39:53;14.15;;;9.20;;
2177;SDS011;1095;50.992;6.798;2023-05-07T01:42:20;12.48;;;9.30;;
2177;SDS011;1095;50.992;6.798;2023-05-07T01:44:48;10.85;;;9.00;;
2177;SDS011;1095;50.992;6.798;2023-05-07T01:47:14;11.65;;;8.70;;
2177;SDS011;1095;50.992;6.798;2023-05-07T01:49:43;9.85;;;8.30;;
2177;SDS011;1095;50.992;6.798;2023-05-07T01:52:10;10.02;;;8.57;;
2177;SDS011;1095;50.992;6.798;2023-05-07T01:54:36;11.45;;;8.38;;
2177;SDS011;1095;50.992;6.798;2023-05-07T01:57:04;11.40;;;7.88;;
2177;SDS011;1095;50.992;6.798;2023-05-07T01:59:31;10.10;;;8.02;;
2177;SDS011;1095;50.992;6.798;2023-05-07T02:01:58;9.20;;;8.30;;
2177;SDS011;1095;50.992;6.798;2023-05-07T02:04:24;9.57;;;7.85;;
2177;SDS011;1095;50.992;6.798;2023-05-07T02:06:51;10.07;;;8.27;;
2177;SDS011;1095;50.992;6.798;2023-05-07T02:09:17;8.48;;;7.68;;
2177;SDS011;1095;50.992;6.798;2023-05-07T02:11:44;9.48;;;7.97;;
2177;SDS011;1095;50.992;6.798;2023-05-07T02:14:12;9.35;;;8.35;;
2177;SDS011;1095;50.992;6.798;2023-05-07T02:16:40;10.80;;;8.48;;
2177;SDS011;1095;50.992;6.798;2023-05-07T02:19:07;8.88;;;7.97;;
2177;SDS011;1095;50.992;6.798;2023-05-07T02:21:33;9.68;;;8.15;;
2177;SDS011;1095;50.992;6.798;2023-05-07T02:24:00;11.23;;;8.70;;
2177;SDS011;1095;50.992;6.798;2023-05-07T02:26:26;10.45;;;8.95;;
2177;SDS011;1095;50.992;6.798;2023-05-07T02:28:53;10.82;;;8.85;;
2177;SDS011;1095;50.992;6.798;2023-05-07T02:31:21;11.27;;;8.15;;
2177;SDS011;1095;50.992;6.798;2023-05-07T02:33:48;10.02;;;8.27;;
2177;SDS011;1095;50.992;6.798;2023-05-07T02:36:14;10.02;;;8.23;;
2177;SDS011;1095;50.992;6.798;2023-05-07T02:38:41;9.95;;;8.13;;
2177;SDS011;1095;50.992;6.798;2023-05-07T02:41:08;9.30;;;8.15;;
2177;SDS011;1095;50.992;6.798;2023-05-07T02:43:34;10.20;;;8.82;;
2177;SDS011;1095;50.992;6.798;2023-05-07T02:46:01;10.95;;;8.43;;
2177;SDS011;1095;50.992;6.798;2023-05-07T02:48:30;9.70;;;8.32;;
2177;SDS011;1095;50.992;6.798;2023-05-07T02:50:56;11.95;;;8.73;;
2177;SDS011;1095;50.992;6.798;2023-05-07T02:53:23;10.18;;;8.68;;
2177;SDS011;1095;50.992;6.798;2023-05-07T02:55:51;12.25;;;9.05;;
2177;SDS011;1095;50.992;6.798;2023-05-07T02:58:17;11.45;;;8.68;;
2177;SDS011;1095;50.992;6.798;2023-05-07T03:00:44;11.45;;;8.73;;
2177;SDS011;1095;50.992;6.798;2023-05-07T03:03:11;9.82;;;8.68;;
2177;SDS011;1095;50.992;6.798;2023-05-07T03:05:39;10.57;;;8.75;;
2177;SDS011;1095;50.992;6.798;2023-05-07T03:08:06;10.93;;;8.57;;
2177;SDS011;1095;50.992;6.798;2023-05-07T03:10:32;10.27;;;8.73;;
2177;SDS011;1095;50.992;6.798;2023-05-07T03:12:59;10.93;;;8.93;;
2177;SDS011;1095;50.992;6.798;2023-05-07T03:15:26;9.75;;;8.65;;
2177;SDS011;1095;50.992;6.798;2023-05-07T03:17:53;11.07;;;9.05;;
2177;SDS011;1095;50.992;6.798;2023-05-07T03:20:20;14.68;;;9.13;;
2177;SDS011;1095;50.992;6.798;2023-05-07T03:22:48;11.05;;;8.48;;
2177;SDS011;1095;50.992;6.798;2023-05-07T03:25:15;10.80;;;9.52;;
2177;SDS011;1095;50.992;6.798;2023-05-07T03:27:41;11.00;;;8.45;;
2177;SDS011;1095;50.992;6.798;2023-05-07T03:30:08;9.25;;;8.32;;
2177;SDS011;1095;50.992;6.798;2023-05-07T03:32:36;11.18;;;8.95;;
2177;SDS011;1095;50.992;6.798;2023-05-07T03:35:03;14.60;;;8.80;;
2177;SDS011;1095;50.992;6.798;2023-05-07T03:37:30;9.68;;;8.57;;
2177;SDS011;1095;50.992;6.798;2023-05-07T03:39:58;9.23;;;8.30;;
2177;SDS011;1095;50.992;6.798;2023-05-07T03:42:24;9.32;;;8.35;;
2177;SDS011;1095;50.992;6.798;2023-05-07T03:44:51;12.90;;;8.25;;
2177;SDS011;1095;50.992;6.798;2023-05-07T03:47:18;9.60;;;8.60;;
2177;SDS011;1095;50.992;6.798;2023-05-07T03:49:44;9.80;;;8.55;;
2177;SDS011;1095;50.992;6.798;2023-05-07T03:52:11;11.10;;;8.48;;
2177;SDS011;1095;50.992;6.798;2023-05-07T03:54:37;9.95;;;8.45;;
2177;SDS011;1095;50.992;6.798;2023-05-07T03:57:05;11.15;;;8.77;;
2177;SDS011;1095;50.992;6.798;2023-05-07T03:59:32;10.82;;;8.68;;
2177;SDS011;1095;50.992;6.798;2023-05-07T04:01:59;9.57;;;8.57;;
2177;SDS011;1095;50.992;6.798;2023-05-07T04:04:25;9.27;;;8.32;;
2177;SDS011;1095;50.992;6.798;2023-05-07T04:06:52;11.18;;;9.20;;
2177;SDS011;1095;50.992;6.798;2023-05-07T04:09:18;10.68;;;9.20;;
2177;SDS011;1095;50.992;6.798;2023-05-07T04:11:45;10.55;;;8.50;;
2177;SDS011;1095;50.992;6.798;2023-05-07T04:14:13;12.43;;;8.63;;
2177;SDS011;1095;50.992;6.798;2023-05-07T04:16:39;9.32;;;8.07;;
2177;SDS011;1095;50.992;6.798;2023-05-07T04:19:06;9.18;;;8.27;;
2177;SDS011;1095;50.992;6.798;2023-05-07T04:21:33;9.73;;;8.25;;
2177;SDS011;1095;50.992;6.798;2023-05-07T04:23:59;10.43;;;9.20;;
2177;SDS011;1095;50.992;6.798;2023-05-07T04:26:26;10.98;;;8.85;;
2177;SDS011;1095;50.992;6.798;2023-05-07T04:28:53;10.85;;;9.00;;
2177;SDS011;1095;50.992;6.798;2023-05-07T04:31:21;9.38;;;7.75;;
2177;SDS011;1095;50.992;6.798;2023-05-07T04:33:48;9.85;;;8.30;;
2177;SDS011;1095;50.992;6.798;2023-05-07T04:36:15;12.00;;;8.60;;
2177;SDS011;1095;50.992;6.798;2023-05-07T04:38:42;10.00;;;9.00;;
2177;SDS011;1095;50.992;6.798;2023-05-07T04:41:09;14.27;;;9.15;;
2177;SDS011;1095;50.992;6.798;2023-05-07T04:43:36;11.77;;;8.80;;
2177;SDS011;1095;50.992;6.798;2023-05-07T04:46:02;9.13;;;8.23;;
2177;SDS011;1095;50.992;6.798;2023-05-07T04:48:31;9.35;;;8.05;;
2177;SDS011;1095;50.992;6.798;2023-05-07T04:50:57;10.02;;;7.70;;
2177;SDS011;1095;50.992;6.798;2023-05-07T04:53:24;10.23;;;7.85;;
2177;SDS011;1095;50.992;6.798;2023-05-07T04:55:54;8.48;;;7.68;;
2177;SDS011;1095;50.992;6.798;2023-05-07T04:58:21;10.63;;;7.68;;
2177;SDS011;1095;50.992;6.798;2023-05-07T05:00:48;8.70;;;7.80;;
2177;SDS011;1095;50.992;6.798;2023-05-07T05:03:15;10.45;;;8.07;;
2177;SDS011;1095;50.992;6.798;2023-05-07T05:05:44;8.75;;;7.38;;
2177;SDS011;1095;50.992;6.798;2023-05-07T05:08:10;9.07;;;7.65;;
2177;SDS011;1095;50.992;6.798;2023-05-07T05:10:37;11.15;;;7.57;;
2177;SDS011;1095;50.992;6.798;2023-05-07T05:13:03;8.80;;;7.43;;
2177;SDS011;1095;50.992;6.798;2023-05-07T05:15:30;13.07;;;7.88;;
2177;SDS011;1095;50.992;6.798;2023-05-07T05:17:57;10.05;;;8.60;;
2177;SDS011;1095;50.992;6.798;2023-05-07T05:20:23;9.30;;;7.63;;
2177;SDS011;1095;50.992;6.798;2023-05-07T05:22:51;11.20;;;7.65;;
2177;SDS011;1095;50.992;6.798;2023-05-07T05:25:18;11.73;;;7.50;;
2177;SDS011;1095;50.992;6.798;2023-05-07T05:27:44;9.05;;;7.13;;
2177;SDS011;1095;50.992;6.798;2023-05-07T05:30:11;8.98;;;7.45;;
2177;SDS011;1095;50.992;6.798;2023-05-07T05:32:38;9.02;;;6.97;;
2177;SDS011;1095;50.992;6.798;2023-05-07T05:35:05;10.68;;;6.50;;
2177;SDS011;1095;50.992;6.798;2023-05-07T05:37:32;7.20;;;6.22;;
2177;SDS011;1095;50.992;6.798;2023-05-07T05:40:01;9.40;;;7.45;;
2177;SDS011;1095;50.992;6.798;2023-05-07T05:42:28;9.18;;;6.38;;
2177;SDS011;1095;50.992;6.798;2023-05-07T05:44:54;8.18;;;6.95;;
2177;SDS011;1095;50.992;6.798;2023-05-07T05:47:21;11.02;;;6.97;;
2177;SDS011;1095;50.992;6.798;2023-05-07T05:49:48;7.95;;;6.90;;
2177;SDS011;1095;50.992;6.798;2023-05-07T05:52:15;9.07;;;6.70;;
2177;SDS011;1095;50.992;6.798;2023-05-07T05:54:42;8.75;;;7.22;;
2177;SDS011;1095;50.992;6.798;2023-05-07T05:57:10;11.68;;;6.85;;
2177;SDS011;1095;50.992;6.798;2023-05-07T05:59:37;9.88;;;6.78;;
2177;SDS011;1095;50.992;6.798;2023-05-07T06:02:08;12.38;;;6.70;;
2177;SDS011;1095;50.992;6.798;2023-05-07T06:04:34;7.68;;;6.07;;
2177;SDS011;1095;50.992;6.798;2023-05-07T06:07:01;9.45;;;6.65;;
2177;SDS011;1095;50.992;6.798;2023-05-07T06:09:28;7.82;;;6.38;;
2177;SDS011;1095;50.992;6.798;2023-05-07T06:11:54;10.23;;;6.68;;
2177;SDS011;1095;50.992;6.798;2023-05-07T06:14:22;7.65;;;6.80;;
2177;SDS011;1095;50.992;6.798;2023-05-07T06:16:49;8.05;;;6.45;;
2177;SDS011;1095;50.992;6.798;2023-05-07T06:19:15;8.98;;;6.38;;
2177;SDS011;1095;50.992;6.798;2023-05-07T06:21:43;8.52;;;6.18;;
2177;SDS011;1095;50.992;6.798;2023-05-07T06:24:09;11.52;;;7.53;;
2177;SDS011;1095;50.992;6.798;2023-05-07T06:26:36;8.65;;;6.15;;
2177;SDS011;1095;50.992;6.798;2023-05-07T06:29:03;7.05;;;6.32;;
2177;SDS011;1095;50.992;6.798;2023-05-07T06:31:30;9.63;;;6.20;;
2177;SDS011;1095;50.992;6.798;2023-05-07T06:33:57;7.07;;;6.20;;
2177;SDS011;1095;50.992;6.798;2023-05-07T06:36:25;6.70;;;6.00;;
2177;SDS011;1095;50.992;6.798;2023-05-07T06:38:52;7.38;;;6.10;;
2177;SDS011;1095;50.992;6.798;2023-05-07T06:41:18;8.50;;;5.95;;
2177;SDS011;1095;50.992;6.798;2023-05-07T06:43:45;8.00;;;6.60;;
2177;SDS011;1095;50.992;6.798;2023-05-07T06:46:14;7.82;;;6.10;;
2177;SDS011;1095;50.992;6.798;2023-05-07T06:48:42;7.13;;;5.70;;
2177;SDS011;1095;50.992;6.798;2023-05-07T06:51:09;7.50;;;6.32;;
2177;SDS011;1095;50.992;6.798;2023-05-07T06:53:35;6.90;;;5.90;;
2177;SDS011;1095;50.992;6.798;2023-05-07T06:56:02;8.15;;;6.10;;
2177;SDS011;1095;50.992;6.798;2023-05-07T06:58:29;7.63;;;5.70;;
2177;SDS011;1095;50.992;6.798;2023-05-07T07:00:56;7.70;;;5.47;;
2177;SDS011;1095;50.992;6.798;2023-05-07T07:03:22;6.40;;;5.20;;
2177;SDS011;1095;50.992;6.798;2023-05-07T07:05:52;7.25;;;5.22;;
2177;SDS011;1095;50.992;6.798;2023-05-07T07:08:19;5.75;;;5.03;;
2177;SDS011;1095;50.992;6.798;2023-05-07T07:10:47;7.35;;;4.93;;
2177;SDS011;1095;50.992;6.798;2023-05-07T07:13:14;7.38;;;4.70;;
2177;SDS011;1095;50.992;6.798;2023-05-07T07:15:41;5.82;;;4.65;;
2177;SDS011;1095;50.992;6.798;2023-05-07T07:18:07;5.75;;;4.30;;
2177;SDS011;1095;50.992;6.798;2023-05-07T07:20:34;5.43;;;3.92;;
2177;SDS011;1095;50.992;6.798;2023-05-07T07:23:03;4.75;;;3.85;;
2177;SDS011;1095;50.992;6.798;2023-05-07T07:25:30;5.30;;;3.97;;
2177;SDS011;1095;50.992;6.798;2023-05-07T07:27:57;5.25;;;3.80;;
2177;SDS011;1095;50.992;6.798;2023-05-07T07:30:24;5.38;;;3.80;;
2177;SDS011;1095;50.992;6.798;2023-05-07T07:32:52;5.07;;;3.70;;
2177;SDS011;1095;50.992;6.798;2023-05-07T07:35:19;4.22;;;3.67;;
2177;SDS011;1095;50.992;6.798;2023-05-07T07:37:46;5.47;;;3.90;;
2177;SDS011;1095;50.992;6.798;2023-05-07T07:40:17;6.30;;;4.00;;
2177;SDS011;1095;50.992;6.798;2023-05-07T07:42:45;5.00;;;3.90;;
2177;SDS011;1095;50.992;6.798;2023-05-07T07:45:12;6.40;;;3.67;;
2177;SDS011;1095;50.992;6.798;2023-05-07T07:47:39;8.10;;;3.70;;
2177;SDS011;1095;50.992;6.798;2023-05-07T07:50:06;4.65;;;3.80;;
2177;SDS011;1095;50.992;6.798;2023-05-07T07:52:33;5.68;;;4.18;;
2177;SDS011;1095;50.992;6.798;2023-05-07T07:55:00;5.68;;;4.03;;
2177;SDS011;1095;50.992;6.798;2023-05-07T07:57:28;5.25;;;4.10;;
2177;SDS011;1095;50.992;6.798;2023-05-07T07:59:55;5.63;;;3.88;;
2177;SDS011;1095;50.992;6.798;2023-05-07T08:02:21;4.57;;;3.90;;
2177;SDS011;1095;50.992;6.798;2023-05-07T08:04:48;5.35;;;3.70;;
2177;SDS011;1095;50.992;6.798;2023-05-07T08:07:15;5.18;;;3.90;;
2177;SDS011;1095;50.992;6.798;2023-05-07T08:09:43;4.75;;;3.72;;
2177;SDS011;1095;50.992;6.798;2023-05-07T08:12:10;5.47;;;3.80;;
2177;SDS011;1095;50.992;6.798;2023-05-07T08:14:38;12.05;;;4.20;;
2177;SDS011;1095;50.992;6.798;2023-05-07T08:17:04;4.65;;;3.75;;
2177;SDS011;1095;50.992;6.798;2023-05-07T08:19:31;4.32;;;3.90;;
2177;SDS011;1095;50.992;6.798;2023-05-07T08:21:58;5.38;;;4.13;;
2177;SDS011;1095;50.992;6.798;2023-05-07T08:24:24;7.68;;;4.30;;
2177;SDS011;1095;50.992;6.798;2023-05-07T08:26:51;5.05;;;3.92;;
2177;SDS011;1095;50.992;6.798;2023-05-07T08:29:18;7.32;;;4.03;;
2177;SDS011;1095;50.992;6.798;2023-05-07T08:31:46;5.47;;;3.90;;
2177;SDS011;1095;50.992;6.798;2023-05-07T08:34:13;4.93;;;3.90;;
2177;SDS011;1095;50.992;6.798;2023-05-07T08:36:39;5.60;;;4.20;;
2177;SDS011;1095;50.992;6.798;2023-05-07T08:39:08;6.55;;;4.00;;
2177;SDS011;1095;50.992;6.798;2023-05-07T08:41:34;4.95;;;3.80;;
2177;SDS011;1095;50.992;6.798;2023-05-07T08:44:02;4.38;;;3.55;;
2177;SDS011;1095;50.992;6.798;2023-05-07T08:46:32;7.10;;;3.95;;
2177;SDS011;1095;50.992;6.798;2023-05-07T08:49:01;5.95;;;4.03;;
2177;SDS011;1095;50.992;6.798;2023-05-07T08:51:28;5.40;;;4.10;;
2177;SDS011;1095;50.992;6.798;2023-05-07T08:53:56;4.55;;;3.75;;
2177;SDS011;1095;50.992;6.798;2023-05-07T08:56:23;5.45;;;4.05;;
2177;SDS011;1095;50.992;6.798;2023-05-07T08:58:50;4.88;;;3.90;;
2177;SDS011;1095;50.992;6.798;2023-05-07T09:01:16;5.75;;;3.88;;
2177;SDS011;1095;50.992;6.798;2023-05-07T09:03:43;6.55;;;3.95;;
2177;SDS011;1095;50.992;6.798;2023-05-07T09:06:13;4.82;;;3.88;;
2177;SDS011;1095;50.992;6.798;2023-05-07T09:08:40;6.53;;;4.03;;
2177;SDS011;1095;50.992;6.798;2023-05-07T09:11:06;6.63;;;4.05;;
2177;SDS011;1095;50.992;6.798;2023-05-07T09:13:33;5.15;;;3.80;;
2177;SDS011;1095;50.992;6.798;2023-05-07T09:16:08;5.47;;;4.10;;
2177;SDS011;1095;50.992;6.798;2023-05-07T09:18:40;5.90;;;4.00;;
2177;SDS011;1095;50.992;6.798;2023-05-07T09:21:09;5.50;;;3.72;;
2177;SDS011;1095;50.992;6.798;2023-05-07T09:23:37;4.43;;;3.80;;
2177;SDS011;1095;50.992;6.798;2023-05-07T09:26:04;4.45;;;3.90;;
2177;SDS011;1095;50.992;6.798;2023-05-07T09:28:33;4.47;;;3.75;;
2177;SDS011;1095;50.992;6.798;2023-05-07T09:31:00;8.57;;;3.90;;
2177;SDS011;1095;50.992;6.798;2023-05-07T09:33:28;5.18;;;3.92;;
2177;SDS011;1095;50.992;6.798;2023-05-07T09:35:56;4.88;;;3.45;;
2177;SDS011;1095;50.992;6.798;2023-05-07T09:38:23;5.38;;;3.78;;
2177;SDS011;1095;50.992;6.798;2023-05-07T09:40:55;5.28;;;3.50;;
2177;SDS011;1095;50.992;6.798;2023-05-07T09:43:31;4.75;;;3.60;;
2177;SDS011;1095;50.992;6.798;2023-05-07T09:45:59;4.25;;;3.45;;
2177;SDS011;1095;50.992;6.798;2023-05-07T09:48:29;4.80;;;3.70;;
2177;SDS011;1095;50.992;6.798;2023-05-07T09:50:56;7.45;;;3.90;;
2177;SDS011;1095;50.992;6.798;2023-05-07T09:53:31;3.45;;;3.15;;
2177;SDS011;1095;50.992;6.798;2023-05-07T09:56:01;5.05;;;3.55;;
2177;SDS011;1095;50.992;6.798;2023-05-07T09:58:29;5.82;;;4.00;;
2177;SDS011;1095;50.992;6.798;2023-05-07T10:01:02;5.40;;;3.65;;
2177;SDS011;1095;50.992;6.798;2023-05-07T10:03:30;5.03;;;3.70;;
2177;SDS011;1095;50.992;6.798;2023-05-07T10:06:00;5.85;;;3.50;;
2177;SDS011;1095;50.992;6.798;2023-05-07T10:08:27;4.82;;;3.60;;
2177;SDS011;1095;50.992;6.798;2023-05-07T10:10:56;4.78;;;3.38;;
2177;SDS011;1095;50.992;6.798;2023-05-07T10:13:24;4.22;;;3.58;;
2177;SDS011;1095;50.992;6.798;2023-05-07T10:15:51;5.20;;;3.90;;
2177;SDS011;1095;50.992;6.798;2023-05-07T10:18:23;4.68;;;3.40;;
2177;SDS011;1095;50.992;6.798;2023-05-07T10:20:58;5.72;;;3.45;;
2177;SDS011;1095;50.992;6.798;2023-05-07T10:23:29;4.00;;;3.60;;
2177;SDS011;1095;50.992;6.798;2023-05-07T10:25:57;4.25;;;3.58;;
2177;SDS011;1095;50.992;6.798;2023-05-07T10:28:27;8.35;;;3.60;;
2177;SDS011;1095;50.992;6.798;2023-05-07T10:30:59;4.22;;;3.30;;
2177;SDS011;1095;50.992;6.798;2023-05-07T10:33:36;5.35;;;3.65;;
2177;SDS011;1095;50.992;6.798;2023-05-07T10:36:05;4.30;;;3.50;;
2177;SDS011;1095;50.992;6.798;2023-05-07T10:38:33;4.88;;;3.30;;
2177;SDS011;1095;50.992;6.798;2023-05-07T10:41:00;4.15;;;3.58;;
2177;SDS011;1095;50.992;6.798;2023-05-07T10:43:39;4.50;;;3.33;;
2177;SDS011;1095;50.992;6.798;2023-05-07T10:46:15;4.45;;;3.28;;
2177;SDS011;1095;50.992;6.798;2023-05-07T10:51:36;3.85;;;3.28;;
2177;SDS011;1095;50.992;6.798;2023-05-07T10:54:22;6.25;;;3.65;;
2177;SDS011;1095;50.992;6.798;2023-05-07T10:56:49;7.32;;;3.60;;
2177;SDS011;1095;50.992;6.798;2023-05-07T10:59:37;4.72;;;3.30;;
2177;SDS011;1095;50.992;6.798;2023-05-07T11:02:09;3.97;;;3.33;;
2177;SDS011;1095;50.992;6.798;2023-05-07T11:04:39;4.63;;;3.08;;
2177;SDS011;1095;50.992;6.798;2023-05-07T11:07:14;5.47;;;3.40;;
2177;SDS011;1095;50.992;6.798;2023-05-07T11:09:54;3.67;;;3.17;;
2177;SDS011;1095;50.992;6.798;2023-05-07T11:12:53;4.70;;;3.45;;
2177;SDS011;1095;50.992;6.798;2023-05-07T11:15:35;4.03;;;3.08;;
2177;SDS011;1095;50.992;6.798;2023-05-07T11:18:06;8.50;;;3.63;;
2177;SDS011;1095;50.992;6.798;2023-05-07T11:20:50;5.53;;;3.58;;
2177;SDS011;1095;50.992;6.798;2023-05-07T11:26:25;6.03;;;3.30;;
2177;SDS011;1095;50.992;6.798;2023-05-07T11:28:53;5.65;;;3.50;;
2177;SDS011;1095;50.992;6.798;2023-05-07T11:31:24;4.47;;;3.35;;
2177;SDS011;1095;50.992;6.798;2023-05-07T11:33:53;4.70;;;3.15;;
2177;SDS011;1095;50.992;6.798;2023-05-07T11:36:22;6.75;;;3.30;;
2177;SDS011;1095;50.992;6.798;2023-05-07T11:38:51;3.22;;;2.92;;
2177;SDS011;1095;50.992;6.798;2023-05-07T11:41:17;4.22;;;3.38;;
2177;SDS011;1095;50.992;6.798;2023-05-07T11:43:56;4.53;;;3.55;;
2177;SDS011;1095;50.992;6.798;2023-05-07T11:46:25;6.10;;;3.60;;
2177;SDS011;1095;50.992;6.798;2023-05-07T11:48:56;6.30;;;3.53;;
2177;SDS011;1095;50.992;6.798;2023-05-07T11:51:25;5.03;;;3.55;;
2177;SDS011;1095;50.992;6.798;2023-05-07T11:53:52;6.10;;;3.33;;
2177;SDS011;1095;50.992;6.798;2023-05-07T11:56:24;7.28;;;3.70;;
2177;SDS011;1095;50.992;6.798;2023-05-07T11:58:51;3.80;;;3.40;;
2177;SDS011;1095;50.992;6.798;2023-05-07T12:01:18;6.43;;;3.70;;
2177;SDS011;1095;50.992;6.798;2023-05-07T12:03:46;4.30;;;3.60;;
2177;SDS011;1095;50.992;6.798;2023-05-07T12:06:13;4.88;;;3.45;;
2177;SDS011;1095;50.992;6.798;2023-05-07T12:08:41;5.78;;;3.70;;
2177;SDS011;1095;50.992;6.798;2023-05-07T12:11:09;4.65;;;3.47;;
2177;SDS011;1095;50.992;6.798;2023-05-07T12:13:42;6.25;;;3.30;;
2177;SDS011;1095;50.992;6.798;2023-05-07T12:16:12;4.85;;;3.25;;
2177;SDS011;1095;50.992;6.798;2023-05-07T12:18:40;4.78;;;3.38;;
2177;SDS011;1095;50.992;6.798;2023-05-07T12:21:13;4.00;;;3.40;;
2177;SDS011;1095;50.992;6.798;2023-05-07T12:23:42;4.35;;;3.47;;
2177;SDS011;1095;50.992;6.798;2023-05-07T12:26:10;5.32;;;3.42;;
2177;SDS011;1095;50.992;6.798;2023-05-07T12:28:38;5.82;;;3.35;;
2177;SDS011;1095;50.992;6.798;2023-05-07T12:31:13;4.50;;;3.38;;
2177;SDS011;1095;50.992;6.798;2023-05-07T12:33:41;4.85;;;3.50;;
2177;SDS011;1095;50.992;6.798;2023-05-07T12:36:08;5.28;;;3.33;;
2177;SDS011;1095;50.992;6.798;2023-05-07T12:38:37;6.70;;;3.70;;
2177;SDS011;1095;50.992;6.798;2023-05-07T12:41:06;8.40;;;3.60;;
2177;SDS011;1095;50.992;6.798;2023-05-07T12:43:37;4.03;;;3.40;;
2177;SDS011;1095;50.992;6.798;2023-05-07T12:46:12;4.85;;;3.20;;
2177;SDS011;1095;50.992;6.798;2023-05-07T12:48:47;5.13;;;3.17;;
2177;SDS011;1095;50.992;6.798;2023-05-07T12:51:17;5.28;;;3.13;;
2177;SDS011;1095;50.992;6.798;2023-05-07T12:53:45;5.35;;;3.40;;
2177;SDS011;1095;50.992;6.798;2023-05-07T12:56:15;5.40;;;3.28;;
2177;SDS011;1095;50.992;6.798;2023-05-07T12:58:42;6.57;;;3.50;;
2177;SDS011;1095;50.992;6.798;2023-05-07T13:01:09;5.13;;;3.30;;
2177;SDS011;1095;50.992;6.798;2023-05-07T13:03:40;6.07;;;3.08;;
2177;SDS011;1095;50.992;6.798;2023-05-07T13:06:08;4.60;;;3.90;;
2177;SDS011;1095;50.992;6.798;2023-05-07T13:08:37;6.80;;;3.70;;
2177;SDS011;1095;50.992;6.798;2023-05-07T13:11:08;5.47;;;3.50;;
2177;SDS011;1095;50.992;6.798;2023-05-07T13:13:37;5.68;;;3.40;;
2177;SDS011;1095;50.992;6.798;2023-05-07T13:16:05;3.72;;;3.33;;
2177;SDS011;1095;50.992;6.798;2023-05-07T13:18:36;5.50;;;3.45;;
2177;SDS011;1095;50.992;6.798;2023-05-07T13:21:04;5.30;;;3.38;;
2177;SDS011;1095;50.992;6.798;2023-05-07T13:23:31;5.13;;;3.22;;
2177;SDS011;1095;50.992;6.798;2023-05-07T13:25:57;5.03;;;3.70;;
2177;SDS011;1095;50.992;6.798;2023-05-07T13:28:25;4.93;;;4.38;;
2177;SDS011;1095;50.992;6.798;2023-05-07T13:30:52;4.50;;;4.00;;
2177;SDS011;1095;50.992;6.798;2023-05-07T13:33:19;5.50;;;3.70;;
2177;SDS011;1095;50.992;6.798;2023-05-07T13:35:46;6.70;;;3.50;;
2177;SDS011;1095;50.992;6.798;2023-05-07T13:38:12;4.53;;;3.47;;
2177;SDS011;1095;50.992;6.798;2023-05-07T13:40:40;5.20;;;3.30;;
2177;SDS011;1095;50.992;6.798;2023-05-07T13:43:07;3.55;;;3.15;;
2177;SDS011;1095;50.992;6.798;2023-05-07T13:45:35;4.63;;;3.70;;
2177;SDS011;1095;50.992;6.798;2023-05-07T13:48:02;4.88;;;3.78;;
2177;SDS011;1095;50.992;6.798;2023-05-07T13:50:29;6.20;;;3.60;;
2177;SDS011;1095;50.992;6.798;2023-05-07T13:52:55;4.20;;;3.67;;
2177;SDS011;1095;50.992;6.798;2023-05-07T13:55:23;6.25;;;4.07;;
2177;SDS011;1095;50.992;6.798;2023-05-07T13:57:54;5.82;;;4.03;;
2177;SDS011;1095;50.992;6.798;2023-05-07T14:00:22;6.43;;;4.57;;
2177;SDS011;1095;50.992;6.798;2023-05-07T14:02:51;6.22;;;5.60;;
2177;SDS011;1095;50.992;6.798;2023-05-07T14:05:18;9.95;;;5.68;;
2177;SDS011;1095;50.992;6.798;2023-05-07T14:07:44;8.43;;;5.78;;
2177;SDS011;1095;50.992;6.798;2023-05-07T14:10:12;8.45;;;6.53;;
2177;SDS011;1095;50.992;6.798;2023-05-07T14:12:39;7.28;;;6.13;;
2177;SDS011;1095;50.992;6.798;2023-05-07T14:15:08;7.85;;;6.40;;
2177;SDS011;1095;50.992;6.798;2023-05-07T14:20:06;10.73;;;7.07;;
2177;SDS011;1095;50.992;6.798;2023-05-07T14:22:35;10.05;;;6.80;;
2177;SDS011;1095;50.992;6.798;2023-05-07T14:25:02;8.80;;;6.80;;
2177;SDS011;1095;50.992;6.798;2023-05-07T14:27:29;12.07;;;7.63;;
2177;SDS011;1095;50.992;6.798;2023-05-07T14:29:55;8.88;;;7.45;;
2177;SDS011;1095;50.992;6.798;2023-05-07T14:32:22;10.45;;;7.68;;
2177;SDS011;1095;50.992;6.798;2023-05-07T14:34:49;11.32;;;7.82;;
2177;SDS011;1095;50.992;6.798;2023-05-07T14:37:17;8.38;;;6.20;;
2177;SDS011;1095;50.992;6.798;2023-05-07T14:39:44;11.88;;;5.20;;
2177;SDS011;1095;50.992;6.798;2023-05-07T14:42:11;5.97;;;3.90;;
2177;SDS011;1095;50.992;6.798;2023-05-07T14:44:38;4.00;;;3.10;;
2177;SDS011;1095;50.992;6.798;2023-05-07T14:47:06;4.22;;;3.17;;
2177;SDS011;1095;50.992;6.798;2023-05-07T14:49:33;4.18;;;3.15;;
2177;SDS011;1095;50.992;6.798;2023-05-07T14:51:59;4.13;;;3.10;;
2177;SDS011;1095;50.992;6.798;2023-05-07T14:54:28;4.13;;;3.35;;
2177;SDS011;1095;50.992;6.798;2023-05-07T14:56:55;9.05;;;4.00;;
2177;SDS011;1095;50.992;6.798;2023-05-07T14:59:21;6.65;;;3.80;;
2177;SDS011;1095;50.992;6.798;2023-05-07T15:01:50;6.93;;;4.30;;
2177;SDS011;1095;50.992;6.798;2023-05-07T15:04:16;11.95;;;4.30;;
2177;SDS011;1095;50.992;6.798;2023-05-07T15:06:43;6.38;;;4.30;;
2177;SDS011;1095;50.992;6.798;2023-05-07T15:09:11;8.35;;;4.80;;
2177;SDS011;1095;50.992;6.798;2023-05-07T15:11:39;5.75;;;4.40;;
2177;SDS011;1095;50.992;6.798;2023-05-07T15:14:06;7.00;;;4.30;;
2177;SDS011;1095;50.992;6.798;2023-05-07T15:16:33;7.95;;;5.15;;
2177;SDS011;1095;50.992;6.798;2023-05-07T15:19:00;10.48;;;4.80;;
2177;SDS011;1095;50.992;6.798;2023-05-07T15:21:26;6.90;;;4.70;;
2177;SDS011;1095;50.992;6.798;2023-05-07T15:23:53;6.13;;;4.80;;